foxsportsla.com alexa rank chart, foxsportsla.com alexa rank daily changes

foxsportsla.com alexa rank chart, foxsportsla.com alexa rank daily changes

foxsportsla.com
Actual rank:
325 674

RANK HISTORY

Date Rank Diff
2017/04/23 325 674 -3 147
2017/04/22 328 821 +1 987
2017/04/21 326 834 +821
2017/04/20 326 013 +6 659
2017/04/19 319 354 +532
2017/04/18 318 822 -2 681
2017/04/17 321 503 +5 565
2017/04/16 315 938 -4 504
2017/04/15 320 442 -2 948
2017/04/14 323 390 -6 245
2017/04/13 329 635 +5 942
2017/04/12 323 693 -1 493
2017/04/11 325 186 +10 406
2017/04/10 314 780 -786
2017/04/09 315 566 -2 118
2017/04/08 317 684 -5 854
2017/04/07 323 538 -4 351
2017/04/06 327 889 -12 335
2017/04/05 340 224 -18 982
2017/04/04 359 206 -16 890
2017/04/03 376 096 -8 987
2017/04/02 385 083 -13 086
2017/04/01 398 169 -23 376
2017/03/31 421 545 -3 346
2017/03/30 424 891 +5 273
2017/03/29 419 618 +19 009
2017/03/28 400 609 -7 101
2017/03/27 407 710 +1 731
2017/03/26 405 979 +14 715
2017/03/25 391 264 -4 743
2017/03/24 396 007 -14 786
2017/03/23 410 793 +8 833
2017/03/22 401 960 -5 347
2017/03/21 407 307 +14 124
2017/03/20 393 183 -23 429
2017/03/19 416 612 -11 189
2017/03/18 427 801 +1 458
2017/03/17 426 343 +14 367
2017/03/16 411 976 -3 380
2017/03/15 415 356 +14 930
2017/03/14 400 426 -532
2017/03/13 400 958 -7 117
2017/03/12 408 075 -1 896
2017/03/11 409 971 -27 432
2017/03/10 437 403 -11 048
2017/03/09 448 451 +335
2017/03/08 448 116 +6 692
2017/03/07 441 424 -13 859
2017/03/06 455 283 +20 489
2017/03/01 434 794 +11 630
2017/02/28 423 164 -6 806
2017/02/27 429 970 -10 224
2017/02/26 440 194 -13 426
2017/02/25 453 620 +1 611
2017/02/24 452 009 +10 807
2017/02/23 441 202 -573
2017/02/22 441 775

WIDGET FOR YOUR SITE

DOMAINS WITH THE NEAREST RANK

Domain Rank
liriklagudewi.blogspot.co.id 325 669
ippudo.com 325 670
beauty-matome.net 325 671
infored.mx 325 672
netemprendedor.com 325 673
foxsportsla.com 325 674
mastinlabs.com 325 675
megustaestarbien.com 325 676
whig.com 325 677
channelsfrequency.com 325 678
ndpsoftware.com 325 679

DOMAINS WITH THE NEAREST RANK BY TLD .com

Domain Rank
10up.com 325 664
justshoutgfs.com 325 665
formulasexcel.com 325 666
ippudo.com 325 670
netemprendedor.com 325 673
foxsportsla.com 325 674
mastinlabs.com 325 675
megustaestarbien.com 325 676
whig.com 325 677
channelsfrequency.com 325 678
ndpsoftware.com 325 679